AUA1M LOWW-LOWI
Flight info
| Callsign | AUA1M |
|---|---|
| Flight time | N/A |
| Altitude | 28000 |
| Route | SOVIL DCT SITNI DCT BAGSI DCT NANIT NANIT2A |
| Aircraft | A320/M-SDE3FGHIRWY/LB1 |
Departure
| Time | 2026-05-06 18:49 |
|---|---|
| Airport | Vienna International Airport (LOWW) |
Arrival
| Time | N/A |
|---|---|
| Airport | Innsbruck Airport (LOWI) |
| Time | Latitude | Longitude | Altitude | Speed | Heading |
|---|---|---|---|---|---|
| 2026-05-06 18:05 | 48.11897 | 16.56767 | 610 ft | 0 kts | 206° |
| 2026-05-06 18:09 | 48.11897 | 16.56768 | 610 ft | 0 kts | 206° |
| 2026-05-06 18:39 | 48.11903 | 16.56771 | 610 ft | 4 kts | 206° |
| 2026-05-06 18:39 | 48.11927 | 16.56788 | 617 ft | 4 kts | 199° |
| 2026-05-06 18:39 | 48.11953 | 16.56797 | 624 ft | 4 kts | 174° |
| 2026-05-06 18:40 | 48.11971 | 16.56785 | 626 ft | 0 kts | 116° |
| 2026-05-06 18:43 | 48.11961 | 16.56815 | 619 ft | 9 kts | 116° |
| 2026-05-06 18:43 | 48.11931 | 16.56907 | 616 ft | 10 kts | 116° |
| 2026-05-06 18:43 | 48.11898 | 16.57010 | 614 ft | 12 kts | 115° |
| 2026-05-06 18:43 | 48.11861 | 16.57130 | 618 ft | 13 kts | 110° |
| 2026-05-06 18:44 | 48.11840 | 16.57258 | 618 ft | 9 kts | 114° |
| 2026-05-06 18:44 | 48.11836 | 16.57300 | 620 ft | 0 kts | 62° |
| 2026-05-06 18:44 | 48.11823 | 16.57332 | 613 ft | 11 kts | 119° |
| 2026-05-06 18:44 | 48.11824 | 16.57474 | 619 ft | 14 kts | 73° |
| 2026-05-06 18:45 | 48.11850 | 16.57604 | 622 ft | 11 kts | 74° |
| 2026-05-06 18:45 | 48.11856 | 16.57646 | 612 ft | 0 kts | 79° |
| 2026-05-06 18:48 | 48.11860 | 16.57681 | 610 ft | 12 kts | 81° |
| 2026-05-06 18:48 | 48.11839 | 16.57825 | 618 ft | 16 kts | 123° |
| 2026-05-06 18:48 | 48.11749 | 16.57915 | 612 ft | 14 kts | 164° |
| 2026-05-06 18:49 | 48.11606 | 16.57974 | 612 ft | 41 kts | 163° |
| 2026-05-06 18:49 | 48.11104 | 16.58187 | 615 ft | 106 kts | 164° |
| 2026-05-06 18:49 | 48.10217 | 16.58565 | 628 ft | 155 kts | 164° |
| 2026-05-06 18:49 | 48.09186 | 16.59034 | 1239 ft | 154 kts | 163° |
| 2026-05-06 18:50 | 48.08171 | 16.59525 | 1967 ft | 155 kts | 164° |
| 2026-05-06 18:50 | 48.07118 | 16.60020 | 2534 ft | 166 kts | 170° |
| 2026-05-06 18:50 | 48.05927 | 16.60068 | 2841 ft | 182 kts | 200° |
| 2026-05-06 18:50 | 48.04862 | 16.58895 | 3217 ft | 205 kts | 229° |
| 2026-05-06 18:51 | 48.04012 | 16.57095 | 3848 ft | 215 kts | 231° |
| 2026-05-06 18:51 | 48.03115 | 16.55238 | 4468 ft | 230 kts | 232° |
| 2026-05-06 18:51 | 48.02475 | 16.53931 | 4821 ft | 241 kts | 232° |
| 2026-05-06 18:51 | 48.01469 | 16.51885 | 5037 ft | 247 kts | 232° |
| 2026-05-06 18:52 | 48.00616 | 16.49639 | 5840 ft | 253 kts | 250° |
| 2026-05-06 18:52 | 48.00432 | 16.47001 | 6688 ft | 261 kts | 269° |
| 2026-05-06 18:52 | 48.00535 | 16.44267 | 7526 ft | 265 kts | 270° |
| 2026-05-06 18:52 | 48.00656 | 16.41491 | 8343 ft | 270 kts | 270° |
| 2026-05-06 18:53 | 48.00783 | 16.38675 | 9186 ft | 273 kts | 271° |
| 2026-05-06 18:53 | 48.00910 | 16.35821 | 9984 ft | 277 kts | 270° |
| 2026-05-06 18:53 | 48.01038 | 16.32866 | 10415 ft | 296 kts | 271° |
| 2026-05-06 18:53 | 48.01172 | 16.29671 | 10703 ft | 317 kts | 271° |
| 2026-05-06 18:54 | 48.01311 | 16.26339 | 11307 ft | 325 kts | 271° |
| 2026-05-06 18:54 | 48.01452 | 16.22939 | 12026 ft | 330 kts | 271° |
| 2026-05-06 18:54 | 48.01595 | 16.19534 | 12752 ft | 335 kts | 270° |
| 2026-05-06 18:54 | 48.01740 | 16.16039 | 13491 ft | 339 kts | 270° |
| 2026-05-06 18:55 | 48.01883 | 16.12507 | 14111 ft | 343 kts | 270° |
| 2026-05-06 18:55 | 48.02026 | 16.08924 | 14763 ft | 346 kts | 270° |
| 2026-05-06 18:55 | 48.02172 | 16.05331 | 15432 ft | 348 kts | 270° |
| 2026-05-06 18:55 | 48.02318 | 16.01705 | 16132 ft | 349 kts | 270° |
| 2026-05-06 18:56 | 48.02459 | 15.98060 | 16816 ft | 351 kts | 270° |
| 2026-05-06 18:56 | 48.02600 | 15.94410 | 17484 ft | 353 kts | 270° |
| 2026-05-06 18:56 | 48.02739 | 15.90722 | 18151 ft | 355 kts | 269° |
| 2026-05-06 18:56 | 48.02875 | 15.87063 | 18718 ft | 358 kts | 269° |
| 2026-05-06 18:57 | 48.03013 | 15.83340 | 19291 ft | 360 kts | 269° |
| 2026-05-06 18:57 | 48.03153 | 15.79579 | 19864 ft | 363 kts | 269° |
| 2026-05-06 18:57 | 48.03294 | 15.75805 | 20429 ft | 366 kts | 269° |
| 2026-05-06 18:57 | 48.03435 | 15.71985 | 21005 ft | 369 kts | 269° |
| 2026-05-06 18:58 | 48.03574 | 15.68142 | 21573 ft | 371 kts | 269° |
| 2026-05-06 18:58 | 48.03712 | 15.64269 | 22134 ft | 374 kts | 269° |
| 2026-05-06 18:58 | 48.03850 | 15.60371 | 22705 ft | 377 kts | 269° |
| 2026-05-06 18:58 | 48.03990 | 15.56451 | 23238 ft | 379 kts | 268° |
| 2026-05-06 18:59 | 48.04128 | 15.52550 | 23688 ft | 382 kts | 268° |
| 2026-05-06 18:59 | 48.04265 | 15.48569 | 24132 ft | 384 kts | 269° |
| 2026-05-06 18:59 | 48.04399 | 15.44576 | 24604 ft | 385 kts | 268° |
| 2026-05-06 18:59 | 48.04533 | 15.40568 | 25058 ft | 387 kts | 268° |
| 2026-05-06 19:00 | 48.04666 | 15.36545 | 25481 ft | 388 kts | 268° |
| 2026-05-06 19:00 | 48.04768 | 15.32500 | 25913 ft | 389 kts | 268° |
| 2026-05-06 19:00 | 48.04838 | 15.28436 | 26325 ft | 391 kts | 267° |
| 2026-05-06 19:00 | 48.04891 | 15.24368 | 26738 ft | 392 kts | 267° |
| 2026-05-06 19:01 | 48.04939 | 15.20333 | 27126 ft | 394 kts | 266° |
| 2026-05-06 19:01 | 48.04987 | 15.16219 | 27518 ft | 395 kts | 266° |
| 2026-05-06 19:01 | 48.05040 | 15.12110 | 27696 ft | 395 kts | 266° |
| 2026-05-06 19:01 | 48.05101 | 15.08082 | 27726 ft | 379 kts | 266° |
| 2026-05-06 19:02 | 48.05164 | 15.04183 | 27723 ft | 372 kts | 266° |
| 2026-05-06 19:02 | 48.05219 | 15.00328 | 27726 ft | 370 kts | 266° |
| 2026-05-06 19:02 | 48.05270 | 14.96486 | 27721 ft | 369 kts | 266° |
| 2026-05-06 19:02 | 48.05318 | 14.92653 | 27725 ft | 369 kts | 266° |
| 2026-05-06 19:03 | 48.05365 | 14.88812 | 27722 ft | 368 kts | 266° |
| 2026-05-06 19:03 | 48.05407 | 14.84987 | 27719 ft | 368 kts | 266° |
| 2026-05-06 19:03 | 48.05448 | 14.81157 | 27718 ft | 367 kts | 266° |
| 2026-05-06 19:03 | 48.05484 | 14.77341 | 27712 ft | 367 kts | 265° |
| 2026-05-06 19:04 | 48.05515 | 14.73510 | 27710 ft | 367 kts | 265° |
| 2026-05-06 19:04 | 48.05546 | 14.69695 | 27714 ft | 366 kts | 265° |
| 2026-05-06 19:04 | 48.05576 | 14.65877 | 27711 ft | 366 kts | 265° |
| 2026-05-06 19:04 | 48.05604 | 14.62129 | 27727 ft | 366 kts | 265° |
| 2026-05-06 19:05 | 48.05629 | 14.58217 | 27730 ft | 378 kts | 265° |
| 2026-05-06 19:05 | 48.05651 | 14.54288 | 27729 ft | 385 kts | 265° |
| 2026-05-06 19:05 | 48.05672 | 14.50253 | 27728 ft | 391 kts | 265° |
| 2026-05-06 19:05 | 48.05696 | 14.46179 | 27744 ft | 393 kts | 265° |
| 2026-05-06 19:06 | 48.05721 | 14.42094 | 27745 ft | 393 kts | 265° |
| 2026-05-06 19:06 | 48.05745 | 14.38006 | 27747 ft | 393 kts | 265° |
| 2026-05-06 19:06 | 48.05767 | 14.33912 | 27753 ft | 392 kts | 265° |
| 2026-05-06 19:06 | 48.05547 | 14.29877 | 27756 ft | 386 kts | 255° |
| 2026-05-06 19:07 | 48.04792 | 14.26046 | 27758 ft | 381 kts | 244° |
| 2026-05-06 19:07 | 48.03650 | 14.22484 | 27752 ft | 380 kts | 241° |
| 2026-05-06 19:07 | 48.02490 | 14.18992 | 27751 ft | 380 kts | 241° |
| 2026-05-06 19:07 | 48.01316 | 14.15454 | 27749 ft | 380 kts | 242° |
| 2026-05-06 19:08 | 48.00526 | 14.13071 | 27745 ft | 380 kts | 242° |